Time;durP1;ratioP1;P1;durP2;ratioP2;P2;SDS_P1;SDS_P2;PMS_P1;PMS_P2;Temp;Humidity;BMP_temperature;BMP_pressure;BME280_temperature;BME280_humidity;BME280_pressure;Samples;Min_cycle;Max_cycle;Signal;HPM_P1;HPM_P2
2022/06/03 00:01:49;;;;;;;11.33;8.77;;;11.50;99.90;;;;;;4194552;28;20270;-70
2022/06/03 00:04:18;;;;;;;11.50;10.03;;;11.60;99.90;;;;;;4194281;28;20218;-70
2022/06/03 00:06:39;;;;;;;13.83;10.20;;;11.60;99.90;;;;;;4193804;28;20191;-70
2022/06/03 00:08:43;;;;;;;12.57;9.03;;;11.60;99.90;;;;;;4194507;28;20678;-71
2022/06/03 00:10:46;;;;;;;13.17;10.43;;;11.60;99.90;;;;;;4194606;28;20171;-70
2022/06/03 00:13:12;;;;;;;10.93;9.53;;;11.70;99.90;;;;;;4194457;28;20183;-70
2022/06/03 00:15:51;;;;;;;12.87;10.47;;;11.70;99.90;;;;;;4194250;28;20175;-70
2022/06/03 00:18:08;;;;;;;9.40;8.40;;;11.70;99.90;;;;;;4194478;28;20221;-70
2022/06/03 00:20:23;;;;;;;10.77;9.27;;;11.60;99.90;;;;;;4192937;28;20195;-70
2022/06/03 00:22:50;;;;;;;11.53;8.93;;;11.50;99.90;;;;;;4193070;28;20180;-70
2022/06/03 00:25:17;;;;;;;13.70;9.70;;;11.40;99.90;;;;;;4194516;28;20191;-70
2022/06/03 00:27:41;;;;;;;10.40;7.97;;;11.40;99.90;;;;;;4193833;28;20202;-70
2022/06/03 00:29:44;;;;;;;9.53;8.53;;;11.50;99.90;;;;;;4196074;28;20156;-70
2022/06/03 00:32:16;;;;;;;12.80;8.63;;;11.50;99.90;;;;;;4197294;28;20182;-70
2022/06/03 00:34:42;;;;;;;10.50;8.07;;;11.40;99.90;;;;;;4197284;28;20197;-70
2022/06/03 00:36:53;;;;;;;8.70;7.80;;;11.40;99.90;;;;;;4196524;28;20229;-70
2022/06/03 00:39:11;;;;;;;8.67;7.70;;;11.30;99.90;;;;;;4195894;28;20290;-70
2022/06/03 00:41:44;;;;;;;7.60;6.63;;;11.20;99.90;;;;;;4197376;28;20267;-70
2022/06/03 00:44:22;;;;;;;8.40;6.73;;;11.30;99.90;;;;;;4197365;28;20210;-70
2022/06/03 00:46:52;;;;;;;8.60;7.70;;;11.20;99.90;;;;;;4196390;28;20190;-70
2022/06/03 00:49:39;;;;;;;9.90;7.43;;;11.10;99.90;;;;;;4197205;28;20648;-70
2022/06/03 00:52:07;;;;;;;8.93;7.50;;;11.20;99.90;;;;;;4196945;28;20343;-70
2022/06/03 00:54:23;;;;;;;9.83;8.23;;;11.30;99.90;;;;;;4196937;28;20192;-70
2022/06/03 00:56:57;;;;;;;8.93;7.60;;;11.30;99.90;;;;;;4196366;28;20264;-70
2022/06/03 00:59:34;;;;;;;8.43;7.60;;;11.30;99.90;;;;;;4196832;28;20614;-70
2022/06/03 01:01:40;;;;;;;8.83;7.93;;;11.30;99.90;;;;;;4196888;28;20170;-70
2022/06/03 01:04:16;;;;;;;10.40;7.63;;;11.30;99.90;;;;;;4196789;28;20223;-70
2022/06/03 01:06:42;;;;;;;9.60;8.10;;;11.30;99.90;;;;;;4196563;28;20642;-70
2022/06/03 01:09:08;;;;;;;8.03;7.23;;;11.30;99.90;;;;;;4196925;28;20172;-70
2022/06/03 01:11:43;;;;;;;9.30;7.47;;;11.30;99.90;;;;;;4197161;28;20173;-70
2022/06/03 01:14:10;;;;;;;8.87;7.97;;;11.30;99.90;;;;;;4196773;28;20201;-70
2022/06/03 01:16:20;;;;;;;13.40;9.10;;;11.40;99.90;;;;;;4195314;28;20187;-70
2022/06/03 01:18:45;;;;;;;11.27;8.20;;;11.40;99.90;;;;;;4196693;28;20174;-70
2022/06/03 01:21:12;;;;;;;9.47;8.30;;;11.40;99.90;;;;;;4196691;28;20203;-70
2022/06/03 01:23:50;;;;;;;10.80;8.67;;;11.40;99.90;;;;;;4196625;28;20344;-70
2022/06/03 01:25:56;;;;;;;13.77;10.70;;;11.50;99.90;;;;;;4196031;28;20191;-70
2022/06/03 01:28:21;;;;;;;12.57;10.20;;;11.50;99.90;;;;;;4196552;28;20715;-70
2022/06/03 01:30:30;;;;;;;13.90;10.30;;;11.60;99.90;;;;;;4196667;28;20178;-70
2022/06/03 01:32:34;;;;;;;13.23;9.53;;;11.60;99.90;;;;;;4196418;28;20163;-70
2022/06/03 01:34:59;;;;;;;14.80;10.30;;;11.60;99.90;;;;;;4196243;28;20192;-70
2022/06/03 01:37:18;;;;;;;12.90;9.17;;;11.70;99.90;;;;;;4196091;28;20184;-70
2022/06/03 01:39:37;;;;;;;12.07;9.20;;;11.70;99.90;;;;;;4196336;28;20249;-70
2022/06/03 01:42:07;;;;;;;10.37;8.43;;;11.60;99.90;;;;;;4195380;28;20186;-70
2022/06/03 01:44:34;;;;;;;9.07;7.37;;;11.60;99.90;;;;;;4196306;28;20196;-70
2022/06/03 01:47:36;;;;;;;10.27;7.83;;;11.60;99.90;;;;;;4195504;28;20697;-70
2022/06/03 01:49:45;;;;;;;8.33;7.43;;;11.50;99.90;;;;;;4195371;28;20183;-70
2022/06/03 01:52:21;;;;;;;7.73;6.87;;;11.50;99.90;;;;;;4196111;28;20167;-70
2022/06/03 01:54:39;;;;;;;11.47;7.87;;;11.50;99.90;;;;;;4195888;28;20211;-70
2022/06/03 01:57:06;;;;;;;8.50;7.57;;;11.50;99.90;;;;;;4195423;28;20229;-70
2022/06/03 01:59:37;;;;;;;9.17;8.20;;;11.50;99.90;;;;;;4195678;28;20171;-70
2022/06/03 02:02:08;;;;;;;9.40;8.40;;;11.60;99.90;;;;;;4195882;28;20188;-70
2022/06/03 02:04:42;;;;;;;10.37;8.67;;;11.70;99.90;;;;;;4196008;28;20202;-70
2022/06/03 02:06:51;;;;;;;11.03;8.50;;;11.70;99.90;;;;;;4195050;28;20295;-70
2022/06/03 02:09:09;;;;;;;9.77;7.90;;;11.70;99.90;;;;;;4195597;28;20180;-70
2022/06/03 02:11:12;;;;;;;9.53;8.00;;;11.70;99.90;;;;;;4195805;28;20652;-70
2022/06/03 02:13:41;;;;;;;10.30;8.60;;;11.80;99.90;;;;;;4195686;28;20221;-70
2022/06/03 02:16:10;;;;;;;9.33;7.63;;;11.90;99.90;;;;;;4195001;28;20240;-70
2022/06/03 02:18:52;;;;;;;9.83;7.80;;;11.90;99.90;;;;;;4195248;28;20172;-70
2022/06/03 02:21:09;;;;;;;9.70;6.90;;;11.90;99.90;;;;;;4195574;28;20852;-70
2022/06/03 02:23:10;;;;;;;8.30;7.50;;;11.80;99.90;;;;;;4195567;28;20207;-70
2022/06/03 02:25:45;;;;;;;9.20;7.37;;;11.80;99.90;;;;;;4195303;28;20528;-70
2022/06/03 02:28:23;;;;;;;10.43;8.20;;;11.80;99.90;;;;;;4192509;28;20187;-70
2022/06/03 02:30:53;;;;;;;10.03;7.30;;;11.80;99.90;;;;;;4195354;28;20666;-70
2022/06/03 02:33:21;;;;;;;8.43;7.23;;;11.80;99.90;;;;;;4189991;28;20176;-70
2022/06/03 02:35:46;;;;;;;7.60;6.80;;;11.80;99.90;;;;;;4178477;28;20200;-70
2022/06/03 02:38:16;;;;;;;8.37;6.60;;;11.80;99.90;;;;;;4178851;28;20172;-70
2022/06/03 02:40:45;;;;;;;7.77;6.97;;;11.70;99.90;;;;;;4178696;28;20176;-70
2022/06/03 02:42:57;;;;;;;9.50;7.00;;;11.70;99.90;;;;;;4181591;28;20253;-70
2022/06/03 02:45:03;;;;;;;7.43;6.57;;;11.70;99.90;;;;;;4195056;28;20274;-70
2022/06/03 02:47:35;;;;;;;7.93;6.37;;;11.70;99.90;;;;;;4194693;28;20219;-70
2022/06/03 02:49:44;;;;;;;6.40;5.80;;;11.80;99.90;;;;;;4197640;28;20213;-69
2022/06/03 02:52:12;;;;;;;7.07;6.37;;;11.80;99.90;;;;;;4197040;28;20191;-70
2022/06/03 02:54:36;;;;;;;8.13;6.77;;;11.70;99.90;;;;;;4197280;28;20747;-70
2022/06/03 02:57:01;;;;;;;8.00;6.60;;;11.60;99.90;;;;;;4185036;28;20206;-70
2022/06/03 02:59:25;;;;;;;8.70;7.47;;;11.70;99.90;;;;;;4197359;28;20635;-69
2022/06/03 03:01:54;;;;;;;8.83;7.83;;;11.70;99.90;;;;;;4197664;28;20164;-69
2022/06/03 03:04:00;;;;;;;8.40;7.27;;;11.70;99.90;;;;;;4197280;28;20207;-70
2022/06/03 03:06:06;;;;;;;7.20;6.50;;;11.70;99.90;;;;;;4196486;28;20575;-70
2022/06/03 03:08:50;;;;;;;6.97;6.27;;;11.70;99.90;;;;;;4196918;28;20212;-70
2022/06/03 03:11:00;;;;;;;7.93;6.30;;;11.80;99.90;;;;;;4197029;28;20175;-70
2022/06/03 03:13:38;;;;;;;7.43;6.60;;;11.70;99.90;;;;;;4197188;28;20293;-69
2022/06/03 03:15:59;;;;;;;8.00;6.70;;;11.80;99.90;;;;;;4197066;28;20178;-70
2022/06/03 03:18:02;;;;;;;9.90;7.37;;;11.70;99.90;;;;;;4197462;28;20457;-69
2022/06/03 03:20:51;;;;;;;8.00;7.20;;;11.70;99.90;;;;;;4197060;28;20654;-69
2022/06/03 03:23:00;;;;;;;7.10;6.40;;;11.70;99.90;;;;;;4183313;28;20196;-70
2022/06/03 03:25:25;;;;;;;8.10;7.30;;;11.60;99.90;;;;;;4196997;28;20179;-70
2022/06/03 03:27:53;;;;;;;7.97;7.00;;;11.50;99.90;;;;;;4196610;28;20199;-70
2022/06/03 03:30:06;;;;;;;8.00;7.20;;;11.50;99.90;;;;;;4195307;28;20650;-70
2022/06/03 03:32:13;;;;;;;7.80;6.60;;;11.60;99.90;;;;;;4195233;28;20175;-70
2022/06/03 03:34:27;;;;;;;9.00;7.27;;;11.60;99.90;;;;;;4195562;28;20198;-70
2022/06/03 03:37:05;;;;;;;8.90;8.00;;;11.60;99.90;;;;;;4194587;28;20167;-70
2022/06/03 03:39:32;;;;;;;8.13;6.73;;;11.70;99.90;;;;;;4195377;28;20272;-70
2022/06/03 03:41:49;;;;;;;7.70;5.90;;;11.60;99.90;;;;;;4197496;28;20160;-70
2022/06/03 03:44:13;;;;;;;7.83;6.30;;;11.60;99.90;;;;;;4197431;28;20187;-70
2022/06/03 03:46:32;;;;;;;6.37;5.70;;;11.50;99.90;;;;;;4196759;28;20156;-70
2022/06/03 03:49:10;;;;;;;8.03;5.90;;;11.50;99.90;;;;;;4197326;28;20184;-71
2022/06/03 03:51:26;;;;;;;8.00;6.23;;;11.50;99.90;;;;;;4197429;28;20183;-70
2022/06/03 03:53:44;;;;;;;7.10;6.40;;;11.60;99.90;;;;;;4197546;28;20192;-70
2022/06/03 03:56:11;;;;;;;8.03;7.10;;;11.50;99.90;;;;;;4196683;28;20662;-70
2022/06/03 03:58:39;;;;;;;9.90;7.20;;;11.50;99.90;;;;;;4195708;28;20591;-70
2022/06/03 04:01:02;;;;;;;8.97;6.83;;;11.60;99.90;;;;;;4197134;28;20168;-70
2022/06/03 04:03:45;;;;;;;9.50;7.10;;;11.60;99.90;;;;;;4197281;28;20168;-70
2022/06/03 04:06:18;;;;;;;6.60;5.90;;;11.70;99.90;;;;;;4199752;28;20190;-70
2022/06/03 04:08:37;;;;;;;7.53;6.17;;;11.70;99.90;;;;;;4199908;28;20257;-70
2022/06/03 04:11:01;;;;;;;9.27;7.27;;;11.70;99.90;;;;;;4200454;28;20168;-70
2022/06/03 04:13:30;;;;;;;7.23;6.30;;;11.70;99.90;;;;;;4200295;28;20160;-70
2022/06/03 04:15:56;;;;;;;7.40;6.67;;;11.70;99.90;;;;;;4199799;28;20247;-70
2022/06/03 04:17:57;;;;;;;7.70;6.80;;;11.80;99.90;;;;;;4198682;28;20179;-70
2022/06/03 04:20:13;;;;;;;9.73;6.30;;;11.80;99.90;;;;;;4199737;28;20199;-70
2022/06/03 04:22:44;;;;;;;11.17;7.30;;;11.80;99.90;;;;;;4198896;28;20611;-70
2022/06/03 04:25:16;;;;;;;9.50;6.63;;;11.80;99.90;;;;;;4200005;28;20291;-70
2022/06/03 04:27:48;;;;;;;8.20;7.40;;;11.90;99.90;;;;;;4199565;28;20207;-70
2022/06/03 04:30:13;;;;;;;9.63;8.03;;;12.00;99.90;;;;;;4199949;28;20175;-70
2022/06/03 04:33:08;;;;;;;10.03;8.23;;;12.00;99.90;;;;;;4199900;28;20835;-70
2022/06/03 04:35:20;;;;;;;9.63;7.40;;;12.00;99.90;;;;;;4199737;28;20188;-70
2022/06/03 04:37:50;;;;;;;8.10;7.00;;;12.00;99.90;;;;;;4199510;28;20915;-70
2022/06/03 04:40:18;;;;;;;8.10;6.87;;;12.00;99.90;;;;;;4199767;28;20175;-70
2022/06/03 04:42:55;;;;;;;7.37;6.63;;;11.90;99.90;;;;;;4199923;28;20639;-70
2022/06/03 04:45:37;;;;;;;9.93;6.10;;;11.90;99.90;;;;;;4200133;28;20171;-70
2022/06/03 04:47:56;;;;;;;9.10;7.20;;;11.90;99.90;;;;;;4198142;28;20212;-70
2022/06/03 04:50:21;;;;;;;7.30;6.37;;;11.90;99.90;;;;;;4196994;28;20184;-69
2022/06/03 04:53:09;;;;;;;8.13;7.07;;;11.90;99.90;;;;;;4183245;28;20168;-70
2022/06/03 04:55:31;;;;;;;7.90;6.93;;;12.00;99.90;;;;;;4181536;28;20207;-70
2022/06/03 04:57:44;;;;;;;8.33;6.93;;;12.10;99.90;;;;;;4180236;28;20184;-70
2022/06/03 04:59:54;;;;;;;9.20;7.17;;;12.10;99.90;;;;;;4180371;28;20195;-70
2022/06/03 05:02:00;;;;;;;7.33;6.63;;;12.10;99.90;;;;;;4180256;28;20184;-69
2022/06/03 05:04:18;;;;;;;8.93;7.13;;;12.00;99.90;;;;;;4180238;28;20257;-69
2022/06/03 05:06:58;;;;;;;7.60;6.73;;;12.10;99.90;;;;;;4179717;28;20169;-69
2022/06/03 05:09:39;;;;;;;8.27;7.47;;;12.20;99.90;;;;;;4145216;28;20315;-70
2022/06/03 05:12:21;;;;;;;7.97;7.17;;;12.30;99.90;;;;;;4145025;28;20692;-69
2022/06/03 05:14:52;;;;;;;7.80;7.00;;;12.50;99.90;;;;;;4160948;28;20675;-69
2022/06/03 05:17:05;;;;;;;7.63;6.90;;;12.70;99.90;;;;;;4179468;28;20234;-70
2022/06/03 05:19:27;;;;;;;8.43;7.60;;;12.80;99.90;;;;;;4180246;28;20172;-70
2022/06/03 05:21:55;;;;;;;8.20;6.20;;;12.80;99.90;;;;;;4180198;28;20196;-70
2022/06/03 05:24:13;;;;;;;9.87;6.60;;;12.90;99.90;;;;;;4180025;28;20208;-70
2022/06/03 05:26:14;;;;;;;7.53;6.70;;;12.90;99.90;;;;;;4179548;28;20180;-70
2022/06/03 05:28:42;;;;;;;8.03;7.23;;;12.90;99.90;;;;;;4180077;28;20691;-69
2022/06/03 05:31:05;;;;;;;8.60;7.73;;;13.00;99.90;;;;;;4194114;28;20229;-69
2022/06/03 05:33:40;;;;;;;7.27;6.47;;;13.10;99.90;;;;;;4196206;28;20199;-70
2022/06/03 05:36:14;;;;;;;7.87;6.47;;;13.10;99.90;;;;;;4195713;28;20602;-70
2022/06/03 05:38:17;;;;;;;7.40;6.47;;;13.20;99.90;;;;;;4196274;28;20197;-70
2022/06/03 05:40:33;;;;;;;7.47;6.33;;;13.20;99.90;;;;;;4196084;28;20180;-70
2022/06/03 05:42:56;;;;;;;7.33;6.60;;;13.30;99.90;;;;;;4196219;28;20171;-70
2022/06/03 05:44:57;;;;;;;7.63;6.90;;;13.40;99.90;;;;;;4195861;28;20167;-69
2022/06/03 05:47:17;;;;;;;8.00;6.70;;;13.50;99.90;;;;;;4195467;28;20204;-70
2022/06/03 05:50:01;;;;;;;7.17;6.47;;;13.60;99.90;;;;;;4196031;28;20190;-70
2022/06/03 05:52:16;;;;;;;7.20;6.33;;;13.70;99.90;;;;;;4195981;28;20229;-70
2022/06/03 05:54:23;;;;;;;6.90;6.20;;;13.90;99.90;;;;;;4195990;28;20202;-70
2022/06/03 05:56:50;;;;;;;7.40;6.27;;;14.00;99.90;;;;;;4195359;28;20180;-70
2022/06/03 05:59:29;;;;;;;7.40;6.70;;;14.10;99.90;;;;;;4195899;28;20180;-70
2022/06/03 06:01:44;;;;;;;9.10;7.53;;;14.20;99.90;;;;;;4194281;28;20275;-70
2022/06/03 06:04:38;;;;;;;8.40;7.30;;;14.30;99.90;;;;;;4196006;28;20222;-70
2022/06/03 06:07:05;;;;;;;8.00;6.33;;;14.40;99.90;;;;;;4193057;28;20187;-70
2022/06/03 06:09:21;;;;;;;7.20;6.50;;;14.80;99.90;;;;;;4195571;28;20214;-71
2022/06/03 06:12:02;;;;;;;6.53;5.93;;;14.80;99.90;;;;;;4195469;28;20179;-69
2022/06/03 06:14:24;;;;;;;8.40;6.37;;;15.00;99.90;;;;;;4195659;28;20572;-70
2022/06/03 06:16:31;;;;;;;8.63;6.47;;;15.10;99.90;;;;;;4195163;28;20178;-70
2022/06/03 06:18:57;;;;;;;7.33;6.67;;;15.30;99.90;;;;;;4195656;28;20658;-70
2022/06/03 06:21:29;;;;;;;27.43;8.50;;;15.40;99.90;;;;;;4195331;28;20194;-70
2022/06/03 06:23:38;;;;;;;6.03;5.53;;;15.70;99.90;;;;;;4195347;28;20200;-70
2022/06/03 06:25:47;;;;;;;6.53;5.37;;;15.90;99.90;;;;;;4194911;28;20258;-70
2022/06/03 06:28:00;;;;;;;7.00;5.47;;;16.00;99.90;;;;;;4194596;28;20207;-70
2022/06/03 06:30:14;;;;;;;6.50;5.77;;;16.10;99.90;;;;;;4195682;28;20190;-70
2022/06/03 06:32:29;;;;;;;6.23;4.93;;;16.20;99.90;;;;;;4195314;28;20187;-70
2022/06/03 06:35:00;;;;;;;5.90;5.23;;;16.40;99.90;;;;;;4195153;28;20199;-70
2022/06/03 06:37:22;;;;;;;5.97;5.33;;;16.40;99.90;;;;;;4194752;28;20259;-70
2022/06/03 06:39:42;;;;;;;5.50;5.00;;;16.80;99.90;;;;;;4194951;28;20187;-70
2022/06/03 06:41:59;;;;;;;5.57;4.80;;;16.70;99.90;;;;;;4195255;28;20183;-70
2022/06/03 06:44:13;;;;;;;5.23;4.73;;;16.90;99.90;;;;;;4195068;28;20692;-70
2022/06/03 06:46:36;;;;;;;5.30;4.80;;;17.00;99.90;;;;;;4194445;28;20182;-70
2022/06/03 06:48:55;;;;;;;6.20;4.23;;;17.20;99.90;;;;;;4195057;28;20171;-70
2022/06/03 06:51:17;;;;;;;6.33;4.27;;;17.80;99.90;;;;;;4195259;28;20719;-70
2022/06/03 06:53:26;;;;;;;5.37;4.60;;;18.20;99.70;;;;;;4195024;28;20307;-70
2022/06/03 06:55:32;;;;;;;4.43;4.03;;;18.50;99.90;;;;;;4194416;28;20176;-70
2022/06/03 06:57:47;;;;;;;4.60;4.20;;;18.80;99.90;;;;;;4195239;28;20246;-70
2022/06/03 06:59:57;;;;;;;4.47;4.07;;;19.00;98.20;;;;;;4195080;28;20227;-70
2022/06/03 07:02:15;;;;;;;4.63;4.20;;;18.90;98.00;;;;;;4195110;28;20191;-70
2022/06/03 07:04:34;;;;;;;4.40;4.00;;;19.00;98.20;;;;;;4195150;28;20191;-70
2022/06/03 07:06:42;;;;;;;4.13;3.83;;;19.00;99.20;;;;;;4194444;28;20191;-69
2022/06/03 07:08:51;;;;;;;5.43;4.17;;;19.10;99.50;;;;;;4195106;28;20545;-71
2022/06/03 07:11:06;;;;;;;26.63;6.77;;;19.30;97.20;;;;;;4194707;28;20167;-69
2022/06/03 07:13:40;;;;;;;7.83;4.83;;;19.60;95.60;;;;;;4194815;28;20195;-71
2022/06/03 07:16:01;;;;;;;5.17;4.30;;;19.70;95.60;;;;;;4194247;28;20176;-71
2022/06/03 07:20:57;;;;;;;5.20;3.87;;;20.10;94.60;;;;;;4194751;28;20280;-71
2022/06/03 07:23:13;;;;;;;4.27;3.87;;;20.30;93.50;;;;;;4194610;28;20178;-71
2022/06/03 07:25:16;;;;;;;3.80;3.50;;;20.60;92.60;;;;;;4194634;28;20215;-70
2022/06/03 07:27:26;;;;;;;6.40;3.97;;;20.80;90.50;;;;;;4194204;28;20207;-70
2022/06/03 07:29:38;;;;;;;4.20;3.60;;;20.70;92.40;;;;;;4194885;28;20170;-75
2022/06/03 07:31:42;;;;;;;4.17;3.43;;;20.80;91.60;;;;;;4195078;28;20309;-74
2022/06/03 07:34:11;;;;;;;4.83;3.57;;;20.90;90.20;;;;;;4194741;28;20199;-70
2022/06/03 07:36:40;;;;;;;3.87;3.47;;;21.10;90.50;;;;;;4193791;28;20686;-71
2022/06/03 07:39:18;;;;;;;4.20;3.80;;;21.40;87.30;;;;;;4195089;28;20249;-71
2022/06/03 07:41:33;;;;;;;4.07;3.77;;;21.40;91.30;;;;;;4178947;28;20197;-70
2022/06/03 07:43:57;;;;;;;5.63;3.93;;;21.70;90.70;;;;;;4197124;28;20202;-71
2022/06/03 07:46:03;;;;;;;3.77;3.37;;;22.10;78.60;;;;;;4196352;28;20769;-70
2022/06/03 07:48:16;;;;;;;3.60;3.30;;;22.40;71.50;;;;;;4196534;28;20195;-71
2022/06/03 07:50:21;;;;;;;4.50;3.27;;;22.60;74.00;;;;;;4196875;28;20705;-70
2022/06/03 07:52:33;;;;;;;3.83;3.40;;;22.80;75.90;;;;;;4197604;28;20218;-71
2022/06/03 07:54:35;;;;;;;4.27;3.87;;;22.80;75.60;;;;;;4197965;28;20252;-70
2022/06/03 07:56:37;;;;;;;3.70;3.40;;;22.70;75.10;;;;;;4197289;28;20286;-70
2022/06/03 07:58:38;;;;;;;3.93;3.53;;;22.60;74.50;;;;;;4197920;28;20205;-70
2022/06/03 08:00:40;;;;;;;3.80;3.50;;;22.50;74.30;;;;;;4197789;28;20207;-70
2022/06/03 08:02:41;;;;;;;3.80;3.50;;;22.90;70.60;;;;;;4197816;28;20172;-70
2022/06/03 08:04:42;;;;;;;3.70;3.40;;;22.90;76.50;;;;;;4197821;28;20257;-70
2022/06/03 08:11:34;;;;;;;3.97;3.43;;;22.90;68.00;;;;;;4197603;28;20198;-71
2022/06/03 08:13:41;;;;;;;3.40;3.10;;;23.00;72.70;;;;;;4197575;28;20199;-70
2022/06/03 08:15:51;;;;;;;5.43;3.60;;;23.40;67.30;;;;;;4196964;28;20198;-71
2022/06/03 08:17:52;;;;;;;4.10;3.80;;;23.40;66.80;;;;;;4197252;28;20186;-70
2022/06/03 08:19:54;;;;;;;5.33;4.00;;;23.30;69.30;;;;;;4197354;28;20555;-70
2022/06/03 08:22:01;;;;;;;3.57;3.27;;;23.30;64.50;;;;;;4197452;28;20255;-70
2022/06/03 08:24:06;;;;;;;8.30;3.93;;;23.30;67.50;;;;;;4197165;28;20290;-71
2022/06/03 08:26:16;;;;;;;4.23;3.87;;;23.10;69.90;;;;;;4196635;28;20825;-71
2022/06/03 08:28:21;;;;;;;4.57;3.80;;;23.00;69.20;;;;;;4197129;28;20211;-70
2022/06/03 08:30:24;;;;;;;5.23;4.00;;;22.90;69.60;;;;;;4197282;28;20203;-70
2022/06/03 08:32:37;;;;;;;4.63;4.20;;;22.60;70.40;;;;;;4197141;28;20194;-69
2022/06/03 08:34:43;;;;;;;5.27;4.13;;;22.10;73.70;;;;;;4197038;28;20572;-70
2022/06/03 08:36:43;;;;;;;4.53;4.13;;;22.00;75.30;;;;;;4196832;28;20164;-70
2022/06/03 08:38:56;;;;;;;5.27;4.07;;;22.10;73.90;;;;;;4197356;28;20655;-70
2022/06/03 08:41:14;;;;;;;6.97;5.87;;;22.30;73.30;;;;;;4197237;28;20273;-70
2022/06/03 08:43:48;;;;;;;4.90;4.03;;;22.10;73.90;;;;;;4197074;28;20729;-70
2022/06/03 08:46:21;;;;;;;6.33;4.60;;;21.70;73.70;;;;;;4196380;28;20232;-70
2022/06/03 08:48:28;;;;;;;5.87;3.60;;;21.70;75.60;;;;;;4196883;28;20200;-70
2022/06/03 08:50:47;;;;;;;4.53;4.13;;;21.80;73.90;;;;;;4196386;28;20167;-70
2022/06/03 08:52:57;;;;;;;3.83;3.53;;;21.90;71.70;;;;;;4196762;28;20183;-70
2022/06/03 08:55:05;;;;;;;4.30;3.50;;;21.80;70.40;;;;;;4197131;28;20175;-70
2022/06/03 08:57:18;;;;;;;4.20;3.80;;;22.00;69.80;;;;;;4196619;28;20190;-70
2022/06/03 08:59:25;;;;;;;5.13;3.37;;;22.20;71.60;;;;;;4196897;28;20180;-70
2022/06/03 09:01:27;;;;;;;4.60;4.30;;;22.50;68.70;;;;;;4196852;28;20653;-70
2022/06/03 09:03:31;;;;;;;4.20;3.80;;;22.70;66.80;;;;;;4196870;28;20283;-70
2022/06/03 09:05:39;;;;;;;4.20;3.87;;;22.40;70.40;;;;;;4196107;28;20596;-70
2022/06/03 09:07:48;;;;;;;4.03;3.43;;;22.80;66.60;;;;;;4196596;28;20211;-70
2022/06/03 09:10:37;;;;;;;4.87;3.83;;;23.00;68.10;;;;;;4196842;28;20935;-70
2022/06/03 09:12:41;;;;;;;5.57;3.67;;;23.10;65.50;;;;;;4187193;28;20317;-70
2022/06/03 09:14:43;;;;;;;4.50;3.90;;;23.40;65.60;;;;;;4196498;28;20191;-70
2022/06/03 09:16:47;;;;;;;3.90;3.60;;;23.40;65.10;;;;;;4195857;28;20180;-70
2022/06/03 09:18:59;;;;;;;4.03;3.37;;;23.50;64.80;;;;;;4196460;28;20175;-70
2022/06/03 09:21:17;;;;;;;3.80;3.50;;;24.00;62.90;;;;;;4196428;28;20201;-70
2022/06/03 09:23:21;;;;;;;4.30;3.10;;;24.10;65.50;;;;;;4196372;28;20226;-70
2022/06/03 09:25:22;;;;;;;3.90;3.07;;;24.20;61.50;;;;;;4195849;28;20179;-70
2022/06/03 09:27:25;;;;;;;6.07;3.50;;;25.00;58.90;;;;;;4196374;28;20202;-71
2022/06/03 09:29:26;;;;;;;3.50;3.03;;;25.60;54.50;;;;;;4196470;28;20246;-70
2022/06/03 09:31:27;;;;;;;3.03;2.77;;;25.80;53.00;;;;;;4196519;28;20188;-70
2022/06/03 09:33:29;;;;;;;3.07;2.60;;;25.30;51.10;;;;;;4196333;28;20208;-69
2022/06/03 09:35:30;;;;;;;6.67;3.00;;;24.90;51.80;;;;;;4195530;28;20179;-69
2022/06/03 09:37:34;;;;;;;3.17;2.87;;;24.80;51.60;;;;;;4196383;28;20572;-69
2022/06/03 09:39:35;;;;;;;5.00;2.90;;;25.00;52.00;;;;;;4196171;28;20175;-70
2022/06/03 09:41:41;;;;;;;3.20;2.90;;;25.00;51.10;;;;;;4195746;28;20529;-69
2022/06/03 09:43:47;;;;;;;3.33;2.73;;;25.10;52.00;;;;;;4180175;28;20253;-69
2022/06/03 09:45:52;;;;;;;6.03;3.20;;;25.00;50.10;;;;;;4178845;28;20273;-70
2022/06/03 09:47:54;;;;;;;6.03;2.80;;;25.10;52.00;;;;;;4179539;28;20291;-69
2022/06/03 09:49:55;;;;;;;2.97;2.47;;;25.20;56.70;;;;;;4179641;28;20597;-69
2022/06/03 09:51:56;;;;;;;3.40;2.50;;;25.20;50.40;;;;;;4179224;28;20177;-69
2022/06/03 09:53:56;;;;;;;2.90;2.60;;;25.10;48.30;;;;;;4179402;28;20279;-69
2022/06/03 09:56:04;;;;;;;7.10;2.97;;;24.90;49.20;;;;;;4178805;28;20183;-70
2022/06/03 09:58:08;;;;;;;4.40;3.07;;;25.10;49.40;;;;;;4179483;28;20198;-69
2022/06/03 10:00:17;;;;;;;3.57;2.40;;;24.90;57.60;;;;;;4179319;28;20188;-70
2022/06/03 10:02:18;;;;;;;2.50;2.30;;;24.90;56.90;;;;;;4178297;28;20227;-69
2022/06/03 10:04:22;;;;;;;4.77;2.50;;;24.80;59.10;;;;;;4179506;28;20243;-69
2022/06/03 10:13:33;;;;;;;2.80;2.10;;;25.10;62.50;;;;;;4179175;28;20199;-70
2022/06/03 10:15:46;;;;;;;2.87;2.60;;;25.70;52.30;;;;;;4189206;28;20183;-70
2022/06/03 10:17:48;;;;;;;5.20;4.90;;;25.60;51.30;;;;;;4195626;28;20181;-70
2022/06/03 10:19:51;;;;;;;3.30;3.10;;;25.50;52.10;;;;;;4195409;28;20187;-69
2022/06/03 10:21:59;;;;;;;6.80;6.37;;;24.80;57.20;;;;;;4192572;28;20647;-70
2022/06/03 10:24:03;;;;;;;7.23;4.97;;;24.00;62.40;;;;;;4192369;28;20219;-70
2022/06/03 10:26:05;;;;;;;6.07;4.57;;;23.10;68.30;;;;;;4191923;28;20203;-70
2022/06/03 10:28:09;;;;;;;7.27;6.53;;;22.60;74.10;;;;;;4192524;28;20873;-70
2022/06/03 10:30:10;;;;;;;5.50;5.00;;;22.20;80.60;;;;;;4192147;28;20932;-70
2022/06/03 10:32:12;;;;;;;7.63;6.93;;;21.40;88.90;;;;;;4192276;28;20608;-69
2022/06/03 10:34:17;;;;;;;5.70;5.20;;;20.90;93.10;;;;;;4192167;28;20634;-70
2022/06/03 10:36:18;;;;;;;7.57;6.77;;;20.80;96.40;;;;;;4191858;28;20183;-70
2022/06/03 10:38:21;;;;;;;7.17;5.37;;;20.30;97.10;;;;;;4192528;28;20219;-70
2022/06/03 10:40:24;;;;;;;9.73;6.00;;;20.50;96.60;;;;;;4192110;28;20230;-70
2022/06/03 10:42:25;;;;;;;8.43;5.43;;;20.80;96.00;;;;;;4192404;28;20186;-70
2022/06/03 10:44:32;;;;;;;6.67;5.93;;;21.20;95.20;;;;;;4192435;28;20192;-70
2022/06/03 10:46:33;;;;;;;6.20;5.40;;;22.00;96.10;;;;;;4191458;28;20251;-70
2022/06/03 10:48:35;;;;;;;6.87;5.13;;;22.70;89.50;;;;;;4192214;28;20254;-70
2022/06/03 10:50:38;;;;;;;6.20;5.70;;;22.90;86.90;;;;;;4192106;28;20203;-70
2022/06/03 11:02:25;;;;;;;7.93;5.07;;;22.10;91.20;;;;;;4192319;28;20190;-70
2022/06/03 11:04:38;;;;;;;5.57;5.07;;;22.40;90.70;;;;;;4192013;28;20200;-70
2022/06/03 11:06:39;;;;;;;7.77;5.00;;;22.60;89.20;;;;;;4191370;28;20186;-70
2022/06/03 11:08:49;;;;;;;5.57;5.07;;;23.10;86.10;;;;;;4192017;28;20181;-70
2022/06/03 11:10:55;;;;;;;7.20;5.67;;;23.10;84.90;;;;;;4191922;28;20571;-70
2022/06/03 11:13:00;;;;;;;5.80;5.20;;;23.80;83.80;;;;;;4191789;28;20176;-70
2022/06/03 11:15:01;;;;;;;5.90;5.13;;;23.80;82.00;;;;;;4191731;28;20183;-70
2022/06/03 11:17:18;;;;;;;7.67;5.37;;;23.90;81.60;;;;;;4191304;28;20180;-70
2022/06/03 11:19:20;;;;;;;5.77;5.17;;;23.70;82.60;;;;;;4191918;28;20217;-70
2022/06/03 11:21:29;;;;;;;6.10;5.50;;;23.20;80.70;;;;;;4191736;28;20269;-70
2022/06/03 11:23:30;;;;;;;5.80;5.30;;;23.40;81.80;;;;;;4191652;28;20199;-70
2022/06/03 11:25:32;;;;;;;5.37;4.87;;;23.30;81.90;;;;;;4191026;28;20182;-71
2022/06/03 11:27:36;;;;;;;5.50;5.00;;;23.30;81.90;;;;;;4191525;28;20168;-70
2022/06/03 11:29:39;;;;;;;5.63;5.10;;;23.20;80.60;;;;;;4191329;28;20267;-70
2022/06/03 11:31:46;;;;;;;5.10;4.60;;;23.00;80.20;;;;;;4189892;28;20184;-70
2022/06/03 11:34:06;;;;;;;7.10;5.30;;;22.70;81.40;;;;;;4167832;28;20200;-70
2022/06/03 11:36:17;;;;;;;7.27;5.27;;;22.50;84.50;;;;;;4163361;28;20184;-70
2022/06/03 11:38:24;;;;;;;6.30;5.33;;;22.00;87.80;;;;;;4163846;28;20208;-70
2022/06/03 11:40:29;;;;;;;6.60;6.00;;;21.70;89.80;;;;;;4163610;28;20212;-70
2022/06/03 11:42:38;;;;;;;6.47;5.87;;;21.30;91.20;;;;;;4163876;28;20181;-70
2022/06/03 11:45:00;;;;;;;6.60;6.00;;;21.30;92.30;;;;;;4163680;28;20663;-70
2022/06/03 11:47:11;;;;;;;7.00;5.93;;;21.30;92.00;;;;;;4162060;28;20189;-70
2022/06/03 11:49:19;;;;;;;6.00;5.40;;;21.40;92.30;;;;;;4163879;28;20913;-70
2022/06/03 11:51:20;;;;;;;6.07;5.13;;;21.40;91.30;;;;;;4163629;28;20196;-70
2022/06/03 11:53:24;;;;;;;6.57;5.13;;;21.20;92.00;;;;;;4163821;28;20282;-69
2022/06/03 11:55:29;;;;;;;6.63;5.10;;;21.20;92.70;;;;;;4163043;28;20180;-70
2022/06/03 11:57:29;;;;;;;6.97;5.73;;;21.40;92.70;;;;;;4163563;28;20216;-70
2022/06/03 11:59:33;;;;;;;4.90;4.50;;;21.60;94.60;;;;;;4163921;28;20185;-70
2022/06/03 12:01:48;;;;;;;4.77;4.23;;;21.80;91.70;;;;;;4163536;28;20205;-70
2022/06/03 12:03:59;;;;;;;5.80;5.23;;;21.80;92.30;;;;;;4163822;28;20220;-70
2022/06/03 12:06:18;;;;;;;8.10;5.70;;;21.80;92.80;;;;;;4163108;28;20187;-70
2022/06/03 12:08:45;;;;;;;4.97;4.57;;;21.80;95.00;;;;;;4163521;28;20263;-70
2022/06/03 12:10:46;;;;;;;6.10;4.90;;;21.80;95.10;;;;;;4163252;28;20208;-70
2022/06/03 12:15:28;;;;;;;5.17;4.67;;;21.70;95.20;;;;;;4163482;28;20204;-71
2022/06/03 12:17:32;;;;;;;5.73;4.57;;;21.60;92.60;;;;;;4162970;28;20185;-71